Time;durP1;ratioP1;P1;durP2;ratioP2;P2;SDS_P1;SDS_P2;PMS_P1;PMS_P2;Temp;Humidity;BMP_temperature;BMP_pressure;BME280_temperature;BME280_humidity;BME280_pressure;Samples;Min_cycle;Max_cycle;Signal;HPM_P1;HPM_P2
2023/07/04 00:02:07;;;;;;;3.35;1.15;;;16.60;99.90;;;;;;5093049;28;20224;-81
2023/07/04 00:04:34;;;;;;;4.35;1.70;;;16.60;99.90;;;;;;5093008;28;20196;-83
2023/07/04 00:07:03;;;;;;;5.43;1.45;;;16.60;99.90;;;;;;5092930;28;20497;-83
2023/07/04 00:09:30;;;;;;;3.22;1.05;;;16.60;99.90;;;;;;5093084;28;20679;-85
2023/07/04 00:11:58;;;;;;;6.95;1.80;;;16.60;99.90;;;;;;5092855;28;20295;-82
2023/07/04 00:14:25;;;;;;;6.95;1.65;;;16.60;99.90;;;;;;5093177;28;20496;-83
2023/07/04 00:16:52;;;;;;;5.50;1.42;;;16.60;99.90;;;;;;5092992;28;20700;-81
2023/07/04 00:19:19;;;;;;;6.07;1.00;;;16.50;99.90;;;;;;5096745;28;20339;-80
2023/07/04 00:21:46;;;;;;;1.98;1.00;;;16.50;99.90;;;;;;5113227;28;20218;-81
2023/07/04 00:24:15;;;;;;;2.33;0.80;;;16.40;99.90;;;;;;5113570;28;20265;-86
2023/07/04 00:26:42;;;;;;;4.28;1.17;;;16.40;99.90;;;;;;5113482;28;20277;-85
2023/07/04 00:29:09;;;;;;;3.85;1.00;;;16.40;99.90;;;;;;5099636;28;20228;-84
2023/07/04 00:31:36;;;;;;;4.53;1.30;;;16.30;99.90;;;;;;5092781;28;20288;-85
2023/07/04 00:34:05;;;;;;;3.40;1.17;;;16.30;99.90;;;;;;5096377;28;20255;-81
2023/07/04 00:36:34;;;;;;;2.67;0.90;;;16.30;99.90;;;;;;5097447;28;20831;-86
2023/07/04 00:39:02;;;;;;;3.80;1.10;;;16.20;99.90;;;;;;5096346;28;20208;-85
2023/07/04 00:41:30;;;;;;;3.72;1.30;;;16.20;99.90;;;;;;5096628;28;20295;-82
2023/07/04 00:44:00;;;;;;;3.15;1.23;;;16.20;99.90;;;;;;5096707;28;20491;-84
2023/07/04 00:46:39;;;;;;;2.00;1.20;;;16.20;99.90;;;;;;5103920;28;20214;-83
2023/07/04 00:49:17;;;;;;;5.35;1.55;;;16.20;99.90;;;;;;5116911;28;20195;-82
2023/07/04 00:51:47;;;;;;;3.17;1.55;;;16.20;99.90;;;;;;5117453;28;20188;-81
2023/07/04 00:54:16;;;;;;;2.17;1.30;;;16.30;99.90;;;;;;5116802;28;20666;-83
2023/07/04 00:56:45;;;;;;;2.70;1.20;;;16.30;99.90;;;;;;5100435;28;20307;-84
2023/07/04 00:59:13;;;;;;;3.33;0.90;;;16.30;99.90;;;;;;5096614;28;20188;-81
2023/07/04 01:01:42;;;;;;;3.25;1.63;;;16.30;99.90;;;;;;5096961;28;20197;-85
2023/07/04 01:04:09;;;;;;;1.77;1.05;;;16.40;99.90;;;;;;5096762;28;20213;-86
2023/07/04 01:06:43;;;;;;;3.85;1.13;;;16.30;99.90;;;;;;5095981;28;20189;-83
2023/07/04 01:09:12;;;;;;;2.67;1.02;;;16.40;99.90;;;;;;5096327;28;20342;-78
2023/07/04 01:11:42;;;;;;;3.13;1.20;;;16.40;99.90;;;;;;5096090;28;20231;-84
2023/07/04 01:14:29;;;;;;;3.30;1.50;;;16.50;99.90;;;;;;5106887;28;20212;-79
2023/07/04 01:16:56;;;;;;;3.30;1.38;;;16.40;99.90;;;;;;5096132;28;20701;-80
2023/07/04 01:19:28;;;;;;;1.67;1.10;;;16.40;99.90;;;;;;5095882;28;20597;-85
2023/07/04 01:22:21;;;;;;;5.78;1.42;;;16.40;99.90;;;;;;5095857;28;20242;-84
2023/07/04 01:24:59;;;;;;;3.17;1.55;;;16.40;99.90;;;;;;5095891;28;20204;-83
2023/07/04 01:27:28;;;;;;;4.38;1.17;;;16.40;99.90;;;;;;5095230;28;20230;-80
2023/07/04 01:30:00;;;;;;;4.60;1.33;;;16.50;99.90;;;;;;5095798;28;20655;-84
2023/07/04 01:32:28;;;;;;;3.00;1.00;;;16.40;99.90;;;;;;5095763;28;20197;-83
2023/07/04 01:34:58;;;;;;;2.00;0.82;;;16.50;99.90;;;;;;5094884;28;20636;-86
2023/07/04 01:37:27;;;;;;;2.42;1.02;;;16.40;99.90;;;;;;5095865;28;20595;-82
2023/07/04 01:39:54;;;;;;;5.85;1.40;;;16.40;99.90;;;;;;5095862;28;20204;-82
2023/07/04 01:42:21;;;;;;;2.38;1.17;;;16.40;99.90;;;;;;5094438;28;20283;-80
2023/07/04 01:44:49;;;;;;;4.68;1.02;;;16.40;99.90;;;;;;5095753;28;20214;-83
2023/07/04 01:47:18;;;;;;;2.35;1.33;;;16.50;99.90;;;;;;5095071;28;20200;-81
2023/07/04 01:49:45;;;;;;;3.08;1.25;;;16.50;99.90;;;;;;5094637;28;20491;-83
2023/07/04 01:52:13;;;;;;;7.35;1.88;;;16.50;99.90;;;;;;5095366;28;20208;-80
2023/07/04 01:54:40;;;;;;;5.97;1.60;;;16.50;99.90;;;;;;5094919;28;20204;-79
2023/07/04 01:57:10;;;;;;;5.70;1.30;;;16.50;99.90;;;;;;5094471;28;20225;-81
2023/07/04 01:59:37;;;;;;;8.63;1.52;;;16.40;99.90;;;;;;5095207;28;20221;-82
2023/07/04 02:02:06;;;;;;;2.97;1.52;;;16.40;99.90;;;;;;5095132;28;20287;-78
2023/07/04 02:04:33;;;;;;;7.28;1.77;;;16.30;99.90;;;;;;5093341;28;20205;-83
2023/07/04 02:07:00;;;;;;;6.32;2.22;;;16.30;99.90;;;;;;5094158;28;20288;-85
2023/07/04 02:09:27;;;;;;;3.58;1.55;;;16.30;99.90;;;;;;5094997;28;20192;-84
2023/07/04 02:11:54;;;;;;;5.37;1.77;;;16.20;99.90;;;;;;5095027;28;20203;-82
2023/07/04 02:14:21;;;;;;;3.90;1.00;;;16.20;99.90;;;;;;5100315;28;20200;-84
2023/07/04 02:16:49;;;;;;;4.32;1.20;;;16.20;99.90;;;;;;5114698;28;20265;-80
2023/07/04 02:19:18;;;;;;;3.33;1.40;;;16.20;99.90;;;;;;5115135;28;20284;-82
2023/07/04 02:21:45;;;;;;;3.20;1.23;;;16.30;99.90;;;;;;5114662;28;20252;-83
2023/07/04 02:24:12;;;;;;;5.78;1.30;;;16.20;99.90;;;;;;5094624;28;20216;-81
2023/07/04 02:26:39;;;;;;;4.70;1.52;;;16.30;99.90;;;;;;5093746;28;20231;-80
2023/07/04 02:29:06;;;;;;;6.83;1.70;;;16.20;99.90;;;;;;5094395;28;20244;-84
2023/07/04 02:31:33;;;;;;;5.22;1.70;;;16.20;99.90;;;;;;5094647;28;20215;-85
2023/07/04 02:34:00;;;;;;;6.70;1.50;;;16.20;99.90;;;;;;5094646;28;20283;-80
2023/07/04 02:36:29;;;;;;;4.78;1.58;;;16.20;99.90;;;;;;5114916;28;20228;-84
2023/07/04 02:38:56;;;;;;;2.67;1.20;;;16.20;99.90;;;;;;5114698;28;20255;-83
2023/07/04 02:41:22;;;;;;;2.72;1.17;;;16.20;99.90;;;;;;5108571;28;20215;-82
2023/07/04 02:43:49;;;;;;;3.83;1.20;;;16.20;99.90;;;;;;5094097;28;20585;-85
2023/07/04 02:46:16;;;;;;;4.53;1.87;;;16.20;99.90;;;;;;5093472;28;20208;-83
2023/07/04 02:48:43;;;;;;;4.87;1.53;;;16.20;99.90;;;;;;5093838;28;20287;-80
2023/07/04 02:51:10;;;;;;;4.03;1.40;;;16.20;99.90;;;;;;5093622;28;20690;-84
2023/07/04 02:53:38;;;;;;;6.43;1.53;;;16.20;99.90;;;;;;5093686;28;20231;-76
2023/07/04 02:56:06;;;;;;;2.60;1.13;;;16.20;99.90;;;;;;5093544;28;20202;-84
2023/07/04 02:58:33;;;;;;;5.35;1.70;;;16.20;99.90;;;;;;5094268;28;20259;-81
2023/07/04 03:01:00;;;;;;;8.00;1.70;;;16.20;99.90;;;;;;5093539;28;20254;-81
2023/07/04 03:03:27;;;;;;;1.75;0.85;;;16.20;99.90;;;;;;5093915;28;20203;-80
2023/07/04 03:05:54;;;;;;;2.92;1.08;;;16.20;99.90;;;;;;5094028;28;20230;-79
2023/07/04 03:08:21;;;;;;;3.40;1.20;;;16.20;99.90;;;;;;5094282;28;20607;-82
2023/07/04 03:10:50;;;;;;;5.17;1.43;;;16.20;99.90;;;;;;5094171;28;20203;-80
2023/07/04 03:13:16;;;;;;;5.88;1.00;;;16.20;99.90;;;;;;5093546;28;20269;-81
2023/07/04 03:15:43;;;;;;;7.00;1.60;;;16.20;99.90;;;;;;5093926;28;20560;-76
2023/07/04 03:18:10;;;;;;;4.93;1.50;;;16.20;99.90;;;;;;5093863;28;20227;-87
2023/07/04 03:20:37;;;;;;;4.27;1.40;;;16.20;99.90;;;;;;5107540;28;20243;-83
2023/07/04 03:23:04;;;;;;;6.57;1.97;;;16.20;99.90;;;;;;5114179;28;20200;-81
2023/07/04 03:25:31;;;;;;;5.57;1.92;;;16.20;99.90;;;;;;5114042;28;20245;-80
2023/07/04 03:28:00;;;;;;;5.43;1.60;;;16.30;99.90;;;;;;5113201;28;20278;-81
2023/07/04 03:30:27;;;;;;;6.80;1.90;;;16.20;99.90;;;;;;5096064;28;20724;-80
2023/07/04 03:32:53;;;;;;;6.25;2.08;;;16.20;99.90;;;;;;5093705;28;20232;-86
2023/07/04 03:35:20;;;;;;;9.80;1.93;;;16.10;99.90;;;;;;5092973;28;20236;-78
2023/07/04 03:37:47;;;;;;;2.20;1.37;;;16.20;99.90;;;;;;5093475;28;20278;-83
2023/07/04 03:40:15;;;;;;;3.97;1.55;;;16.20;99.90;;;;;;5093756;28;20288;-85
2023/07/04 03:42:42;;;;;;;4.25;1.40;;;16.20;99.90;;;;;;5092918;28;20510;-79
2023/07/04 03:45:11;;;;;;;6.10;1.53;;;16.20;99.90;;;;;;5093545;28;20196;-80
2023/07/04 03:47:38;;;;;;;8.20;1.87;;;16.20;99.90;;;;;;5093208;28;20192;-81
2023/07/04 03:50:06;;;;;;;6.07;1.63;;;16.20;99.90;;;;;;5092612;28;20256;-83
2023/07/04 03:52:33;;;;;;;3.97;1.60;;;16.20;99.90;;;;;;5092897;28;20620;-81
2023/07/04 03:55:00;;;;;;;6.07;1.70;;;16.20;99.90;;;;;;5093081;28;20287;-80
2023/07/04 03:57:27;;;;;;;5.90;2.00;;;16.20;99.90;;;;;;5092858;28;20224;-79
2023/07/04 03:59:54;;;;;;;8.35;2.47;;;16.20;99.90;;;;;;5093161;28;20512;-76
2023/07/04 04:02:22;;;;;;;5.70;2.00;;;16.20;99.90;;;;;;5092566;28;20253;-77
2023/07/04 04:04:49;;;;;;;4.82;1.77;;;16.20;99.90;;;;;;5092892;28;20189;-84
2023/07/04 04:07:17;;;;;;;6.13;1.93;;;16.20;99.90;;;;;;5093370;28;20205;-80
2023/07/04 04:09:44;;;;;;;6.43;2.00;;;16.30;99.90;;;;;;5096630;28;20748;-77
2023/07/04 04:12:11;;;;;;;9.97;2.37;;;16.30;99.90;;;;;;5097043;28;20200;-76
2023/07/04 04:14:38;;;;;;;8.13;2.07;;;16.30;99.90;;;;;;5097122;28;20713;-77
2023/07/04 04:17:06;;;;;;;10.40;2.30;;;16.20;99.90;;;;;;5096391;28;20590;-80
2023/07/04 04:19:34;;;;;;;6.77;2.40;;;16.20;99.90;;;;;;5096634;28;20235;-78
2023/07/04 04:22:01;;;;;;;9.23;2.53;;;16.10;99.90;;;;;;5100258;28;20204;-79
2023/07/04 04:24:28;;;;;;;4.93;2.35;;;16.20;99.90;;;;;;5116247;28;20631;-79
2023/07/04 04:26:55;;;;;;;8.10;2.25;;;16.30;99.90;;;;;;5117241;28;20252;-79
2023/07/04 04:29:22;;;;;;;8.88;2.25;;;16.20;99.90;;;;;;5116928;28;20211;-80
2023/07/04 04:31:50;;;;;;;12.02;2.88;;;16.20;99.90;;;;;;5112353;28;20204;-82
2023/07/04 04:34:18;;;;;;;8.25;1.70;;;16.20;99.90;;;;;;5096246;28;20208;-80
2023/07/04 04:36:46;;;;;;;8.25;2.20;;;16.30;99.90;;;;;;5096353;28;20197;-77
2023/07/04 04:39:14;;;;;;;6.10;1.95;;;16.30;99.90;;;;;;5096268;28;20235;-82
2023/07/04 04:41:42;;;;;;;8.50;2.30;;;16.30;99.90;;;;;;5096147;28;20311;-81
2023/07/04 04:44:09;;;;;;;8.10;2.10;;;16.30;99.90;;;;;;5096771;28;20207;-81
2023/07/04 04:46:40;;;;;;;10.88;2.45;;;16.30;99.90;;;;;;5095343;28;20197;-82
2023/07/04 04:49:08;;;;;;;4.90;1.90;;;16.30;99.90;;;;;;5096262;28;20184;-83
2023/07/04 04:51:35;;;;;;;11.68;2.55;;;16.30;99.90;;;;;;5100898;28;20191;-77
2023/07/04 04:54:04;;;;;;;9.45;2.55;;;16.30;99.90;;;;;;5117111;28;20200;-84
2023/07/04 04:56:33;;;;;;;7.57;2.50;;;16.30;99.90;;;;;;5106397;28;20278;-81
2023/07/04 04:59:01;;;;;;;7.90;2.60;;;16.40;99.90;;;;;;5095947;28;20235;-79
2023/07/04 05:01:28;;;;;;;8.20;2.23;;;16.40;99.90;;;;;;5096601;28;20286;-83
2023/07/04 05:03:57;;;;;;;8.77;3.00;;;16.40;99.90;;;;;;5096070;28;20201;-76
2023/07/04 05:06:26;;;;;;;7.45;2.25;;;16.40;99.90;;;;;;5095926;28;20258;-80
2023/07/04 05:08:53;;;;;;;7.47;2.50;;;16.40;99.90;;;;;;5096143;28;20254;-82
2023/07/04 05:11:22;;;;;;;6.22;2.40;;;16.50;99.90;;;;;;5096661;28;20206;-77
2023/07/04 05:13:50;;;;;;;11.23;2.78;;;16.50;99.90;;;;;;5096039;28;20690;-81
2023/07/04 05:16:19;;;;;;;8.05;2.30;;;16.50;99.90;;;;;;5116262;28;20271;-87
2023/07/04 05:18:48;;;;;;;8.98;2.75;;;16.60;99.90;;;;;;5115561;28;20220;-78
2023/07/04 05:21:17;;;;;;;8.18;2.42;;;16.60;99.90;;;;;;5114684;28;20287;-84
2023/07/04 05:23:46;;;;;;;7.03;2.10;;;16.60;99.90;;;;;;5115967;28;20236;-78
2023/07/04 05:26:16;;;;;;;10.13;2.22;;;16.60;99.90;;;;;;5116049;28;20191;-82
2023/07/04 05:28:45;;;;;;;11.48;2.60;;;16.60;99.90;;;;;;5113941;28;20701;-80
2023/07/04 05:31:14;;;;;;;9.95;2.55;;;16.70;99.90;;;;;;5115943;28;20350;-80
2023/07/04 05:33:41;;;;;;;9.65;2.80;;;16.70;99.90;;;;;;5103185;28;20509;-81
2023/07/04 05:36:09;;;;;;;9.48;2.58;;;16.80;99.90;;;;;;5095824;28;20206;-84
2023/07/04 05:38:38;;;;;;;8.52;2.40;;;16.80;99.90;;;;;;5095423;28;20271;-85
2023/07/04 05:41:09;;;;;;;5.55;2.65;;;16.80;99.90;;;;;;5104611;28;20231;-78
2023/07/04 05:43:36;;;;;;;9.73;2.50;;;16.80;99.90;;;;;;5115834;28;20215;-78
2023/07/04 05:46:05;;;;;;;12.40;3.33;;;17.00;99.90;;;;;;5115928;28;20620;-83
2023/07/04 05:48:33;;;;;;;9.93;3.08;;;17.10;99.90;;;;;;5109850;28;20266;-80
2023/07/04 05:51:02;;;;;;;8.82;3.08;;;17.30;99.90;;;;;;5105648;28;20253;-80
2023/07/04 05:53:31;;;;;;;6.72;2.65;;;17.50;99.90;;;;;;5112769;28;20204;-81
2023/07/04 05:56:08;;;;;;;10.18;3.20;;;17.60;99.90;;;;;;5114415;28;20204;-82
2023/07/04 05:58:36;;;;;;;12.23;3.00;;;17.70;99.90;;;;;;5099044;28;20219;-81
2023/07/04 06:01:11;;;;;;;8.60;2.70;;;17.70;99.90;;;;;;5115462;28;20509;-77
2023/07/04 06:03:39;;;;;;;8.75;2.67;;;17.90;99.90;;;;;;5107589;28;20279;-80
2023/07/04 06:06:06;;;;;;;8.05;2.75;;;18.00;99.90;;;;;;5095084;28;20204;-77
2023/07/04 06:08:34;;;;;;;7.20;2.45;;;18.10;99.90;;;;;;5095118;28;20200;-81
2023/07/04 06:11:03;;;;;;;7.82;2.50;;;18.00;99.90;;;;;;5095248;28;20245;-76
2023/07/04 06:13:30;;;;;;;5.68;2.13;;;18.00;99.90;;;;;;5094585;28;20296;-83
2023/07/04 06:15:59;;;;;;;16.35;3.55;;;17.90;99.90;;;;;;5095461;28;20257;-83
2023/07/04 06:18:27;;;;;;;8.32;3.13;;;17.90;99.90;;;;;;5094823;28;20750;-87
2023/07/04 06:20:54;;;;;;;8.57;2.60;;;17.80;99.90;;;;;;5094613;28;20203;-77
2023/07/04 06:23:21;;;;;;;13.23;2.70;;;18.00;99.90;;;;;;5094070;28;20291;-85
2023/07/04 06:25:56;;;;;;;11.20;2.83;;;18.20;99.90;;;;;;5094621;28;20247;-83
2023/07/04 06:28:23;;;;;;;10.05;2.33;;;18.40;99.90;;;;;;5094995;28;20498;-80
2023/07/04 06:30:50;;;;;;;9.95;2.63;;;18.60;99.90;;;;;;5093102;28;20188;-76
2023/07/04 06:33:17;;;;;;;8.80;2.92;;;18.70;99.90;;;;;;5100276;28;20204;-80
2023/07/04 06:35:46;;;;;;;9.75;2.63;;;18.60;99.90;;;;;;5114953;28;20220;-77
2023/07/04 06:38:12;;;;;;;9.15;2.75;;;18.50;99.90;;;;;;5114257;28;20276;-82
2023/07/04 06:40:41;;;;;;;10.88;3.42;;;18.40;99.90;;;;;;5114908;28;20287;-80
2023/07/04 06:43:08;;;;;;;6.60;2.47;;;18.30;99.90;;;;;;5114882;28;20228;-83
2023/07/04 06:45:36;;;;;;;12.77;3.22;;;18.30;99.90;;;;;;5108661;28;20196;-79
2023/07/04 06:48:03;;;;;;;8.55;2.58;;;18.30;99.90;;;;;;5093802;28;20288;-79
2023/07/04 06:50:30;;;;;;;8.07;2.70;;;18.30;99.90;;;;;;5093745;28;20800;-78
2023/07/04 06:52:58;;;;;;;8.27;2.63;;;18.30;99.90;;;;;;5093488;28;20544;-82
2023/07/04 06:55:25;;;;;;;10.35;3.00;;;18.40;99.90;;;;;;5107100;28;20655;-79
2023/07/04 06:57:52;;;;;;;12.02;3.53;;;18.50;99.90;;;;;;5113903;28;20245;-82
2023/07/04 07:00:20;;;;;;;9.73;3.38;;;18.50;99.90;;;;;;5113889;28;20223;-76
2023/07/04 07:02:50;;;;;;;13.20;3.33;;;18.50;99.90;;;;;;5108342;28;20284;-81
2023/07/04 07:05:18;;;;;;;13.05;2.33;;;18.50;99.90;;;;;;5092924;28;20205;-77
2023/07/04 07:07:47;;;;;;;11.35;3.15;;;18.50;99.90;;;;;;5097038;28;20199;-80
2023/07/04 07:10:15;;;;;;;9.45;2.90;;;18.50;99.90;;;;;;5108462;28;20204;-82
2023/07/04 07:12:42;;;;;;;14.00;3.13;;;18.50;99.90;;;;;;5111005;28;20208;-80
2023/07/04 07:15:09;;;;;;;12.07;3.00;;;18.50;99.90;;;;;;5109532;28;20235;-79
2023/07/04 07:17:36;;;;;;;10.93;3.03;;;18.50;99.90;;;;;;5112045;28;20296;-79
2023/07/04 07:20:08;;;;;;;11.90;3.22;;;18.50;99.90;;;;;;5111956;28;20877;-75
2023/07/04 07:22:35;;;;;;;9.82;3.10;;;18.50;99.90;;;;;;5111077;28;20598;-79
2023/07/04 07:25:02;;;;;;;12.10;2.72;;;18.50;99.90;;;;;;5092271;28;20291;-76
2023/07/04 07:27:30;;;;;;;7.75;2.65;;;18.60;99.90;;;;;;5092588;28;20228;-81
2023/07/04 07:29:58;;;;;;;12.10;2.53;;;18.60;99.90;;;;;;5097713;28;20220;-79
2023/07/04 07:32:25;;;;;;;9.68;2.80;;;18.70;99.90;;;;;;5092120;28;20502;-82
2023/07/04 07:34:51;;;;;;;10.20;3.13;;;18.70;99.90;;;;;;5097567;28;20253;-82
2023/07/04 07:37:19;;;;;;;8.15;2.50;;;18.70;99.90;;;;;;5111713;28;20230;-82
2023/07/04 07:39:46;;;;;;;10.13;2.67;;;18.80;99.90;;;;;;5110425;28;20216;-78
2023/07/04 07:42:13;;;;;;;8.25;2.85;;;18.90;99.90;;;;;;5091459;28;20250;-78
2023/07/04 07:44:41;;;;;;;10.48;2.85;;;18.90;99.90;;;;;;5091767;28;20204;-79
2023/07/04 07:47:10;;;;;;;6.45;2.22;;;18.80;99.90;;;;;;5092549;28;20510;-79
2023/07/04 07:49:37;;;;;;;6.60;1.80;;;18.90;99.90;;;;;;5092207;28;20828;-79
2023/07/04 07:52:04;;;;;;;8.77;2.72;;;18.90;99.90;;;;;;5092889;28;20222;-87
2023/07/04 07:54:31;;;;;;;10.70;2.90;;;18.80;99.90;;;;;;5107120;28;20610;-76
2023/07/04 07:56:59;;;;;;;7.15;2.33;;;18.70;99.90;;;;;;5113981;28;20208;-79
2023/07/04 07:59:25;;;;;;;8.60;2.40;;;18.70;99.90;;;;;;5107301;28;20223;-81
2023/07/04 08:01:55;;;;;;;13.68;3.28;;;18.80;99.90;;;;;;5092925;28;20291;-83
2023/07/04 08:04:22;;;;;;;6.93;2.67;;;18.90;99.90;;;;;;5093317;28;20206;-82
2023/07/04 08:06:49;;;;;;;7.85;2.85;;;19.00;99.90;;;;;;5093333;28;20230;-78
2023/07/04 08:09:17;;;;;;;5.97;2.38;;;19.10;99.90;;;;;;5093171;28;20193;-86
2023/07/04 08:11:46;;;;;;;9.10;2.70;;;19.30;99.90;;;;;;5102155;28;20195;-86
2023/07/04 08:14:13;;;;;;;9.13;2.88;;;19.50;99.90;;;;;;5113618;28;20252;-78
2023/07/04 08:16:45;;;;;;;13.45;3.60;;;19.60;99.90;;;;;;5113445;28;20211;-84
2023/07/04 08:19:16;;;;;;;7.18;2.78;;;19.80;99.90;;;;;;5105064;28;20303;-84
2023/07/04 08:21:43;;;;;;;10.63;3.03;;;20.00;99.90;;;;;;5092843;28;20617;-81
2023/07/04 08:24:12;;;;;;;9.90;3.00;;;20.10;99.90;;;;;;5092508;28;20253;-76
2023/07/04 08:26:41;;;;;;;7.70;2.95;;;20.20;99.90;;;;;;5098624;28;20252;-75
2023/07/04 08:29:09;;;;;;;8.00;3.00;;;20.40;99.90;;;;;;5112441;28;20227;-78
2023/07/04 08:31:36;;;;;;;7.07;2.72;;;20.70;99.90;;;;;;5102031;28;20292;-78
2023/07/04 08:34:04;;;;;;;9.88;3.17;;;21.00;99.90;;;;;;5092831;28;20199;-78
2023/07/04 08:36:33;;;;;;;10.95;2.58;;;21.10;99.90;;;;;;5092073;28;20504;-79
2023/07/04 08:39:00;;;;;;;11.23;2.70;;;21.10;99.90;;;;;;5090130;28;20255;-83
2023/07/04 08:41:45;;;;;;;9.73;2.75;;;21.10;99.90;;;;;;5092175;28;20683;-75
2023/07/04 08:44:17;;;;;;;11.90;3.95;;;21.10;99.90;;;;;;5091392;28;20254;-75
2023/07/04 08:46:48;;;;;;;13.35;3.25;;;21.20;99.90;;;;;;5091641;28;20196;-83
2023/07/04 08:49:28;;;;;;;10.23;2.70;;;21.20;99.90;;;;;;5089390;28;20638;-81
2023/07/04 08:52:02;;;;;;;8.73;2.90;;;21.20;99.90;;;;;;5091721;28;20275;-78
2023/07/04 08:54:29;;;;;;;10.20;2.72;;;21.10;99.90;;;;;;5094444;28;20188;-75
2023/07/04 08:57:00;;;;;;;12.15;3.45;;;21.10;99.90;;;;;;5096101;28;20280;-76
2023/07/04 08:59:40;;;;;;;11.18;3.80;;;21.00;99.90;;;;;;5095169;28;20212;-79
2023/07/04 09:02:29;;;;;;;14.98;3.42;;;21.00;99.90;;;;;;5095442;28;20288;-78
2023/07/04 09:05:04;;;;;;;10.60;3.70;;;21.10;99.90;;;;;;5095163;28;20214;-81
2023/07/04 09:07:38;;;;;;;12.85;3.67;;;21.10;99.90;;;;;;5095657;28;20588;-82
2023/07/04 09:10:20;;;;;;;10.55;3.35;;;21.10;99.90;;;;;;5095684;28;20469;-84
2023/07/04 09:12:49;;;;;;;13.00;3.13;;;21.10;99.90;;;;;;5095790;28;20684;-82
2023/07/04 09:15:24;;;;;;;11.23;3.35;;;21.10;99.90;;;;;;5116267;28;20276;-82
2023/07/04 09:17:59;;;;;;;10.35;3.42;;;21.10;99.90;;;;;;5115965;28;20223;-76
2023/07/04 09:20:30;;;;;;;10.80;3.08;;;21.10;99.90;;;;;;5108831;28;20226;-82
2023/07/04 09:22:58;;;;;;;11.57;3.00;;;21.10;99.90;;;;;;5095952;28;20284;-81
2023/07/04 09:25:25;;;;;;;9.27;3.00;;;21.20;99.90;;;;;;5095274;28;20201;-81
2023/07/04 09:27:53;;;;;;;8.43;2.67;;;21.30;99.90;;;;;;5095502;28;20202;-81
2023/07/04 09:30:20;;;;;;;8.90;3.10;;;21.40;99.90;;;;;;5095738;28;20309;-80
2023/07/04 09:32:47;;;;;;;10.90;3.38;;;21.40;99.90;;;;;;5094950;28;20200;-82
2023/07/04 09:35:17;;;;;;;11.25;3.03;;;21.70;99.90;;;;;;5108879;28;20199;-79
2023/07/04 09:37:56;;;;;;;11.20;2.92;;;21.90;99.90;;;;;;5111897;28;20212;-84
2023/07/04 09:40:50;;;;;;;11.10;3.50;;;22.30;99.90;;;;;;5094638;28;20208;-81
2023/07/04 09:43:30;;;;;;;9.80;2.63;;;22.40;99.90;;;;;;5095217;28;20430;-80
2023/07/04 09:46:17;;;;;;;12.57;2.92;;;22.40;99.90;;;;;;5095695;28;20184;-76
2023/07/04 09:48:44;;;;;;;6.72;2.53;;;22.60;99.90;;;;;;5094886;28;20207;-79
2023/07/04 09:51:24;;;;;;;11.25;3.78;;;22.90;99.90;;;;;;5094975;28;20229;-76
2023/07/04 09:53:51;;;;;;;9.80;3.20;;;23.10;99.90;;;;;;5094312;28;20192;-78
2023/07/04 09:56:27;;;;;;;9.57;3.15;;;23.10;99.90;;;;;;5094633;28;20224;-76
2023/07/04 09:59:12;;;;;;;9.52;3.25;;;23.10;99.90;;;;;;5095259;28;20693;-87
2023/07/04 10:01:40;;;;;;;16.52;2.80;;;23.20;99.90;;;;;;5094104;28;20207;-83
2023/07/04 10:04:08;;;;;;;10.57;2.83;;;23.30;99.90;;;;;;5114841;28;20220;-83
2023/07/04 10:06:38;;;;;;;8.43;2.67;;;23.50;99.90;;;;;;5114454;28;20281;-81
2023/07/04 10:09:15;;;;;;;11.00;3.13;;;23.80;99.90;;;;;;5114618;28;20603;-76
2023/07/04 10:11:44;;;;;;;9.55;2.97;;;24.00;99.90;;;;;;5101745;28;20196;-80
2023/07/04 10:14:13;;;;;;;9.98;3.25;;;24.30;99.90;;;;;;5094679;28;20601;-82
2023/07/04 10:16:47;;;;;;;11.10;3.25;;;24.20;99.90;;;;;;5103412;28;20212;-81
2023/07/04 10:19:16;;;;;;;13.70;3.22;;;24.30;99.90;;;;;;5094179;28;20224;-82
2023/07/04 10:21:45;;;;;;;7.20;2.40;;;24.20;1.00;;;;;;5093711;28;20276;-83
2023/07/04 10:24:17;;;;;;;8.77;2.40;;;24.30;99.90;;;;;;5093235;28;20284;-80
2023/07/04 10:26:48;;;;;;;9.68;2.80;;;24.20;99.90;;;;;;5093798;28;20205;-82
2023/07/04 10:29:17;;;;;;;9.57;2.65;;;24.10;99.90;;;;;;5093922;28;20292;-82
2023/07/04 10:31:44;;;;;;;8.35;2.70;;;24.00;99.90;;;;;;5101552;28;20204;-80
2023/07/04 10:34:16;;;;;;;6.85;2.30;;;24.00;99.90;;;;;;5114571;28;20643;-86
2023/07/04 10:36:44;;;;;;;11.73;2.72;;;24.00;99.90;;;;;;5113472;28;20188;-81
2023/07/04 10:39:16;;;;;;;9.55;3.13;;;23.90;99.90;;;;;;5094830;28;20212;-84
2023/07/04 10:41:53;;;;;;;12.50;3.35;;;23.80;99.90;;;;;;5093776;28;20331;-81
2023/07/04 10:44:23;;;;;;;10.95;2.95;;;23.60;99.90;;;;;;5092681;28;20238;-81
2023/07/04 10:46:56;;;;;;;14.13;3.30;;;23.40;99.90;;;;;;5108910;28;20208;-82
2023/07/04 10:49:26;;;;;;;11.75;3.08;;;23.30;99.90;;;;;;5112403;28;20263;-84
2023/07/04 10:52:00;;;;;;;7.97;3.38;;;23.30;99.90;;;;;;5093467;28;20557;-81
2023/07/04 10:54:27;;;;;;;7.80;2.70;;;23.30;99.90;;;;;;5093453;28;20730;-79
2023/07/04 10:57:06;;;;;;;14.55;3.80;;;23.40;99.90;;;;;;5093284;28;20181;-79
2023/07/04 10:59:36;;;;;;;9.35;2.75;;;23.50;99.90;;;;;;5093792;28;20224;-80
2023/07/04 11:02:25;;;;;;;10.18;3.17;;;23.60;99.90;;;;;;5092883;28;20556;-80
2023/07/04 11:04:59;;;;;;;9.60;3.00;;;23.60;99.90;;;;;;5092644;28;20185;-80
2023/07/04 11:07:27;;;;;;;9.07;2.42;;;23.60;99.90;;;;;;5093266;28;20284;-80
2023/07/04 11:09:57;;;;;;;10.27;2.83;;;23.60;99.90;;;;;;5093148;28;20275;-78
2023/07/04 11:12:29;;;;;;;9.32;2.65;;;23.60;99.90;;;;;;5092324;28;20201;-83
2023/07/04 11:15:01;;;;;;;10.00;3.10;;;23.80;99.90;;;;;;5093204;28;20254;-81
2023/07/04 11:17:33;;;;;;;9.10;2.47;;;23.90;99.90;;;;;;5092668;28;20271;-81
2023/07/04 11:20:11;;;;;;;11.00;2.58;;;24.00;99.90;;;;;;5092632;28;20247;-83
2023/07/04 11:22:46;;;;;;;12.48;3.50;;;24.00;99.90;;;;;;5102612;28;20630;-85
2023/07/04 11:25:53;;;;;;;11.93;3.25;;;24.20;99.90;;;;;;5114855;28;20183;-91
2023/07/04 11:28:26;;;;;;;9.60;2.92;;;24.10;99.90;;;;;;5110845;28;20502;-84
2023/07/04 11:31:07;;;;;;;12.13;2.72;;;24.10;99.90;;;;;;5094507;28;20181;-84
2023/07/04 11:33:44;;;;;;;8.45;2.85;;;24.00;99.90;;;;;;5092956;28;20196;-81
2023/07/04 11:36:18;;;;;;;6.93;2.50;;;23.80;99.90;;;;;;5113730;28;20196;-81
2023/07/04 11:38:52;;;;;;;7.70;2.78;;;23.80;99.90;;;;;;5114179;28;20214;-80
2023/07/04 11:41:27;;;;;;;7.88;2.50;;;23.80;99.90;;;;;;5113342;28;20251;-80
2023/07/04 11:43:56;;;;;;;7.78;2.50;;;23.60;99.90;;;;;;5099066;28;20588;-79
2023/07/04 11:46:26;;;;;;;8.10;2.42;;;23.50;99.90;;;;;;5093017;28;20231;-80
2023/07/04 11:48:55;;;;;;;8.95;3.08;;;23.50;99.90;;;;;;5094075;28;20235;-89
2023/07/04 11:51:24;;;;;;;9.00;3.30;;;23.50;99.90;;;;;;5094360;28;20189;-82
2023/07/04 11:53:57;;;;;;;9.60;3.17;;;23.40;99.90;;;;;;5093908;28;20235;-83
2023/07/04 11:56:41;;;;;;;6.90;2.45;;;23.20;99.90;;;;;;5108883;28;20199;-91
2023/07/04 11:59:41;;;;;;;6.30;2.08;;;23.20;99.90;;;;;;5112614;28;20286;-81
2023/07/04 12:02:30;;;;;;;10.27;2.75;;;23.20;99.90;;;;;;5094004;28;20278;-86
2023/07/04 12:04:58;;;;;;;11.55;2.67;;;23.20;99.90;;;;;;5094827;28;20498;-82
2023/07/04 12:07:45;;;;;;;9.25;2.35;;;23.20;99.90;;;;;;5093687;28;20587;-84
2023/07/04 12:10:17;;;;;;;8.55;2.50;;;23.10;99.90;;;;;;5093634;28;20188;-80
2023/07/04 12:12:44;;;;;;;8.70;2.72;;;23.20;99.90;;;;;;5093894;28;20193;-81
2023/07/04 12:15:19;;;;;;;12.27;2.85;;;23.20;99.90;;;;;;5093704;28;20200;-88
2023/07/04 12:17:48;;;;;;;9.60;2.58;;;23.10;99.90;;;;;;5103787;28;20631;-86
2023/07/04 12:20:17;;;;;;;8.25;2.90;;;23.10;99.90;;;;;;5113849;28;20543;-80
2023/07/04 12:22:45;;;;;;;12.80;2.90;;;23.00;99.90;;;;;;5101598;28;20395;-83
2023/07/04 12:25:20;;;;;;;9.45;2.70;;;23.00;99.90;;;;;;5093613;28;20201;-86
2023/07/04 12:27:48;;;;;;;11.77;2.63;;;22.90;99.90;;;;;;5093443;28;20188;-79
2023/07/04 12:30:16;;;;;;;6.38;2.40;;;22.80;99.90;;;;;;5095211;28;20230;-81
2023/07/04 12:32:43;;;;;;;7.28;2.42;;;22.70;99.90;;;;;;5097287;28;20197;-83
2023/07/04 12:35:19;;;;;;;6.07;2.10;;;22.60;99.90;;;;;;5096718;28;20204;-82
2023/07/04 12:37:49;;;;;;;8.75;2.58;;;22.50;99.90;;;;;;5096586;28;20291;-77
2023/07/04 12:40:18;;;;;;;6.47;2.10;;;22.50;99.90;;;;;;5096432;28;20591;-82
2023/07/04 12:42:47;;;;;;;10.38;2.53;;;22.50;99.90;;;;;;5095843;28;20329;-81
2023/07/04 12:45:20;;;;;;;10.32;2.67;;;22.50;99.90;;;;;;5096818;28;20664;-81
2023/07/04 12:47:48;;;;;;;6.90;2.20;;;22.40;99.90;;;;;;5097199;28;20591;-87
2023/07/04 12:50:16;;;;;;;8.52;2.40;;;22.40;99.90;;;;;;5116572;28;20314;-85
2023/07/04 12:52:45;;;;;;;6.15;2.28;;;22.30;99.90;;;;;;5116672;28;20650;-82
2023/07/04 12:55:21;;;;;;;7.18;2.00;;;22.20;99.90;;;;;;5112974;28;20201;-78
2023/07/04 12:57:50;;;;;;;9.02;2.60;;;22.10;99.90;;;;;;5095471;28;20206;-80